Time;durP1;ratioP1;P1;durP2;ratioP2;P2;SDS_P1;SDS_P2;PMS_P1;PMS_P2;Temp;Humidity;BMP_temperature;BMP_pressure;BME280_temperature;BME280_humidity;BME280_pressure;Samples;Min_cycle;Max_cycle;Signal;HPM_P1;HPM_P2
2022/05/21 00:00:21;;;;;;;8.02;4.22;;;12.00;99.90;;;;;;4950120;29;20031;-72
2022/05/21 00:02:49;;;;;;;7.22;4.10;;;12.00;99.90;;;;;;4949997;29;20435;-74
2022/05/21 00:05:16;;;;;;;10.18;5.18;;;12.00;99.90;;;;;;4950039;29;20047;-76
2022/05/21 00:07:43;;;;;;;6.47;4.82;;;12.00;99.90;;;;;;4950366;29;20111;-75
2022/05/21 00:10:09;;;;;;;8.48;5.30;;;12.00;99.90;;;;;;4949687;29;20043;-75
2022/05/21 00:12:35;;;;;;;9.93;4.72;;;12.00;99.90;;;;;;4950038;29;20114;-75
2022/05/21 00:15:02;;;;;;;9.43;4.78;;;12.00;99.90;;;;;;4950086;29;20031;-73
2022/05/21 00:17:27;;;;;;;5.57;3.85;;;12.00;99.90;;;;;;4949731;29;20078;-74
2022/05/21 00:19:53;;;;;;;10.75;3.47;;;12.00;99.90;;;;;;4949805;29;20038;-73
2022/05/21 00:22:19;;;;;;;8.95;4.18;;;12.00;99.90;;;;;;4950121;29;20038;-74
2022/05/21 00:24:45;;;;;;;6.05;3.53;;;12.00;99.90;;;;;;4932601;29;20031;-73
2022/05/21 00:27:11;;;;;;;8.27;3.20;;;12.00;99.90;;;;;;4949800;29;20047;-74
2022/05/21 00:29:37;;;;;;;7.63;3.35;;;12.00;99.90;;;;;;4948362;29;20583;-73
2022/05/21 00:32:03;;;;;;;5.97;3.28;;;12.00;99.90;;;;;;4948862;29;20028;-77
2022/05/21 00:34:29;;;;;;;4.40;2.17;;;12.00;99.90;;;;;;4949653;29;20035;-74
2022/05/21 00:36:55;;;;;;;5.80;3.00;;;12.10;99.90;;;;;;4949589;29;20019;-75
2022/05/21 00:39:20;;;;;;;3.80;2.67;;;12.00;99.90;;;;;;4949099;29;20082;-74
2022/05/21 00:41:47;;;;;;;6.07;2.65;;;12.00;99.90;;;;;;4949625;29;20055;-74
2022/05/21 00:44:13;;;;;;;5.13;2.60;;;11.90;99.90;;;;;;4949480;29;20027;-75
2022/05/21 00:46:42;;;;;;;10.02;2.78;;;11.90;99.90;;;;;;4949387;29;20032;-69
2022/05/21 00:49:20;;;;;;;4.32;2.33;;;11.90;99.90;;;;;;4949381;29;20051;-70
2022/05/21 00:51:58;;;;;;;3.90;2.65;;;11.90;99.90;;;;;;4949240;29;20032;-73
2022/05/21 00:54:41;;;;;;;4.43;2.47;;;11.90;99.90;;;;;;4948910;29;20122;-72
2022/05/21 00:57:10;;;;;;;3.25;2.10;;;11.90;99.90;;;;;;4948769;29;20034;-74
2022/05/21 00:59:48;;;;;;;3.22;2.03;;;11.90;99.90;;;;;;4949072;29;20032;-73
2022/05/21 01:02:33;;;;;;;3.92;2.35;;;11.90;99.90;;;;;;4949327;29;20028;-73
2022/05/21 01:05:02;;;;;;;5.25;2.45;;;11.80;99.90;;;;;;4931715;29;20095;-70
2022/05/21 01:07:28;;;;;;;4.90;2.55;;;11.80;99.90;;;;;;4947740;29;20027;-74
2022/05/21 01:09:59;;;;;;;2.17;1.85;;;11.70;99.90;;;;;;4948963;29;20055;-74
2022/05/21 01:12:32;;;;;;;2.28;1.67;;;11.60;99.90;;;;;;4948719;29;20119;-72
2022/05/21 01:15:03;;;;;;;4.63;2.53;;;11.60;99.90;;;;;;4949005;29;20103;-69
2022/05/21 01:17:29;;;;;;;2.58;1.67;;;11.60;99.90;;;;;;4948657;29;20036;-72
2022/05/21 01:20:07;;;;;;;3.35;2.13;;;11.60;99.90;;;;;;4948585;29;20059;-73
2022/05/21 01:22:45;;;;;;;2.88;1.77;;;11.60;99.90;;;;;;4931663;29;20118;-73
2022/05/21 01:25:20;;;;;;;4.60;1.98;;;11.60;99.90;;;;;;4948596;29;20452;-73
2022/05/21 01:27:49;;;;;;;5.95;2.28;;;11.50;99.90;;;;;;4948625;29;20036;-73
2022/05/21 01:30:19;;;;;;;4.68;2.33;;;11.60;99.90;;;;;;4948629;29;20042;-70
2022/05/21 01:32:47;;;;;;;14.15;3.05;;;11.50;99.90;;;;;;4947958;29;20412;-73
2022/05/21 01:35:13;;;;;;;5.88;2.50;;;11.50;99.90;;;;;;4931602;29;20059;-72
2022/05/21 01:37:39;;;;;;;3.72;2.50;;;11.50;99.90;;;;;;4948579;29;20051;-70
2022/05/21 01:40:07;;;;;;;4.68;2.83;;;11.50;99.90;;;;;;4948128;29;20028;-73
2022/05/21 01:42:34;;;;;;;9.48;2.58;;;11.50;99.90;;;;;;4948313;29;20020;-72
2022/05/21 01:45:00;;;;;;;9.65;2.90;;;11.50;99.90;;;;;;4948479;29;20130;-70
2022/05/21 01:47:26;;;;;;;8.50;2.80;;;11.50;99.90;;;;;;4948025;29;20028;-71
2022/05/21 01:49:51;;;;;;;5.60;3.10;;;11.50;99.90;;;;;;4948252;29;20092;-69
2022/05/21 01:52:18;;;;;;;7.97;2.95;;;11.50;99.90;;;;;;4948343;29;20031;-74
2022/05/21 01:54:43;;;;;;;5.40;3.03;;;11.50;99.90;;;;;;4931025;29;20031;-71
2022/05/21 01:57:10;;;;;;;5.40;2.40;;;11.50;99.90;;;;;;4948146;29;20037;-69
2022/05/21 01:59:36;;;;;;;6.68;3.35;;;11.50;99.90;;;;;;4947937;29;20041;-70
2022/05/21 02:02:03;;;;;;;7.57;3.00;;;11.50;99.90;;;;;;4947850;29;20057;-73
2022/05/21 02:04:29;;;;;;;4.72;2.78;;;11.50;99.90;;;;;;4947957;29;20114;-71
2022/05/21 02:06:54;;;;;;;6.30;3.28;;;11.60;99.90;;;;;;4946829;29;20063;-72
2022/05/21 02:09:20;;;;;;;5.18;2.97;;;11.50;99.90;;;;;;4947960;29;20039;-72
2022/05/21 02:11:45;;;;;;;4.90;2.85;;;11.60;99.90;;;;;;4948142;29;20122;-72
2022/05/21 02:14:12;;;;;;;5.10;2.50;;;11.60;99.90;;;;;;4947757;29;20039;-71
2022/05/21 02:16:37;;;;;;;7.93;2.92;;;11.70;99.90;;;;;;4947920;29;20023;-71
2022/05/21 02:19:05;;;;;;;5.53;3.17;;;11.60;99.90;;;;;;4947760;29;20047;-70
2022/05/21 02:21:33;;;;;;;12.38;3.03;;;11.60;99.90;;;;;;4947380;29;20016;-72
2022/05/21 02:23:58;;;;;;;3.92;2.58;;;11.60;99.90;;;;;;4947630;29;20036;-71
2022/05/21 02:26:24;;;;;;;5.60;3.17;;;11.60;99.90;;;;;;4947721;29;20028;-73
2022/05/21 02:28:50;;;;;;;6.57;3.08;;;11.60;99.90;;;;;;4947619;29;20055;-74
2022/05/21 02:31:16;;;;;;;6.28;3.00;;;11.50;99.90;;;;;;4946511;29;20043;-71
2022/05/21 02:33:42;;;;;;;4.65;2.88;;;11.50;99.90;;;;;;4947309;29;20123;-71
2022/05/21 02:36:08;;;;;;;5.28;3.30;;;11.50;99.90;;;;;;4947401;29;20031;-71
2022/05/21 02:41:31;;;;;;;11.60;3.45;;;11.50;99.90;;;;;;4947640;29;20042;-70
2022/05/21 02:43:57;;;;;;;8.52;3.10;;;11.40;99.90;;;;;;4947331;29;20036;-68
2022/05/21 02:46:23;;;;;;;4.45;2.95;;;11.40;99.90;;;;;;4947577;29;20055;-69
2022/05/21 02:48:49;;;;;;;8.10;2.75;;;11.40;99.90;;;;;;4947235;29;20031;-72
2022/05/21 02:51:15;;;;;;;6.05;3.47;;;11.40;99.90;;;;;;4947510;29;20043;-73
2022/05/21 02:53:40;;;;;;;9.23;2.88;;;11.40;99.90;;;;;;4947642;29;20032;-73
2022/05/21 02:56:08;;;;;;;4.00;2.55;;;11.40;99.90;;;;;;4947154;29;20028;-70
2022/05/21 02:58:34;;;;;;;15.25;3.90;;;11.30;99.90;;;;;;4947507;29;20028;-70
2022/05/21 03:01:00;;;;;;;8.57;3.78;;;11.30;99.90;;;;;;4947396;29;20059;-72
2022/05/21 03:03:25;;;;;;;9.10;5.00;;;11.40;99.90;;;;;;4946991;29;20027;-74
2022/05/21 03:05:51;;;;;;;5.32;3.20;;;11.30;99.90;;;;;;4947283;29;20024;-71
2022/05/21 03:11:02;;;;;;;7.75;3.88;;;11.30;99.90;;;;;;4947234;29;20047;-71
2022/05/21 03:13:28;;;;;;;6.70;4.25;;;11.30;99.90;;;;;;4947451;29;20088;-71
2022/05/21 03:15:56;;;;;;;19.05;5.25;;;11.30;99.90;;;;;;4947185;29;20035;-71
2022/05/21 03:18:22;;;;;;;11.80;4.95;;;11.30;99.90;;;;;;4947792;29;20024;-72
2022/05/21 03:20:48;;;;;;;7.57;4.18;;;11.30;99.90;;;;;;4951081;29;20068;-72
2022/05/21 03:23:13;;;;;;;12.07;5.13;;;11.40;99.90;;;;;;4950625;29;20032;-72
2022/05/21 03:25:39;;;;;;;15.48;5.25;;;11.40;99.90;;;;;;4950758;29;20034;-70
2022/05/21 03:28:06;;;;;;;10.35;4.75;;;11.50;99.90;;;;;;4950937;29;20038;-70
2022/05/21 03:30:32;;;;;;;9.98;5.22;;;11.40;99.90;;;;;;4948812;29;20090;-71
2022/05/21 03:32:58;;;;;;;9.05;4.90;;;11.50;99.90;;;;;;4950366;29;20048;-71
2022/05/21 03:35:24;;;;;;;11.20;5.82;;;11.50;99.90;;;;;;4950726;29;20051;-70
2022/05/21 03:37:52;;;;;;;9.63;5.93;;;11.50;99.90;;;;;;4950579;29;20028;-73
2022/05/21 03:40:25;;;;;;;17.17;5.22;;;11.60;99.90;;;;;;4953256;28;20032;-73
2022/05/21 03:42:51;;;;;;;13.80;6.15;;;11.60;99.90;;;;;;4981791;28;20379;-67
2022/05/21 03:45:17;;;;;;;12.50;6.55;;;11.60;99.90;;;;;;4969618;29;20031;-69
2022/05/21 03:47:43;;;;;;;13.73;6.55;;;11.60;99.90;;;;;;4970059;28;20038;-70
2022/05/21 03:50:14;;;;;;;13.88;7.55;;;11.70;99.90;;;;;;4969551;28;20125;-70
2022/05/21 03:52:40;;;;;;;15.07;6.53;;;11.70;99.90;;;;;;4955710;28;20059;-70
2022/05/21 03:55:07;;;;;;;16.67;7.45;;;11.70;99.90;;;;;;4950436;29;20058;-70
2022/05/21 03:57:33;;;;;;;12.90;7.32;;;11.80;99.90;;;;;;4950383;29;20034;-70
2022/05/21 03:59:58;;;;;;;18.70;8.38;;;11.80;99.90;;;;;;4950072;29;20063;-70
2022/05/21 04:02:25;;;;;;;13.77;7.45;;;11.80;99.90;;;;;;4958754;28;20035;-72
2022/05/21 04:04:51;;;;;;;17.65;8.07;;;11.80;99.90;;;;;;4969396;28;20494;-68
2022/05/21 04:07:17;;;;;;;15.50;8.27;;;11.90;99.90;;;;;;4969103;28;20087;-72
2022/05/21 04:09:42;;;;;;;14.95;7.95;;;11.90;99.90;;;;;;4969321;28;20074;-69
2022/05/21 04:12:08;;;;;;;15.68;7.93;;;11.90;99.90;;;;;;4967896;28;20038;-71
2022/05/21 04:14:34;;;;;;;16.23;9.32;;;11.90;99.90;;;;;;4968691;28;20495;-70
2022/05/21 04:17:01;;;;;;;20.50;10.23;;;12.00;99.90;;;;;;4957278;28;20032;-71
2022/05/21 04:19:28;;;;;;;16.73;9.02;;;12.00;99.90;;;;;;4950442;28;20086;-71
2022/05/21 04:21:55;;;;;;;13.70;8.77;;;12.10;99.90;;;;;;4966262;28;20035;-69
2022/05/21 04:24:20;;;;;;;19.13;8.68;;;12.10;99.90;;;;;;4965507;28;20092;-69
2022/05/21 04:26:46;;;;;;;23.95;9.27;;;12.10;99.90;;;;;;4968653;28;20032;-69
2022/05/21 04:29:13;;;;;;;22.23;9.90;;;12.10;99.90;;;;;;4968037;28;20122;-71
2022/05/21 04:31:39;;;;;;;24.50;10.35;;;12.20;99.90;;;;;;4967556;28;20042;-71
2022/05/21 04:34:05;;;;;;;21.05;9.43;;;12.10;99.90;;;;;;4946066;29;20056;-70
2022/05/21 04:36:31;;;;;;;25.25;11.13;;;12.10;99.90;;;;;;4964278;28;20092;-72
2022/05/21 04:38:58;;;;;;;19.23;9.85;;;12.00;99.90;;;;;;4964847;28;20023;-71
2022/05/21 04:41:26;;;;;;;24.95;10.40;;;12.00;99.90;;;;;;4963248;28;20045;-69
2022/05/21 04:43:53;;;;;;;24.63;11.18;;;11.90;99.90;;;;;;4961430;28;20120;-70
2022/05/21 04:46:21;;;;;;;23.17;10.93;;;11.90;99.90;;;;;;4949482;29;20035;-69
2022/05/21 04:48:48;;;;;;;21.30;11.38;;;11.90;99.90;;;;;;4946139;29;20050;-71
2022/05/21 04:51:14;;;;;;;32.42;13.00;;;11.90;99.90;;;;;;4960411;28;20551;-70
2022/05/21 04:53:46;;;;;;;32.78;12.68;;;11.90;99.90;;;;;;4967263;28;20035;-69
2022/05/21 04:56:12;;;;;;;24.50;12.18;;;11.90;99.90;;;;;;4969279;28;20023;-67
2022/05/21 04:58:38;;;;;;;31.90;12.25;;;11.90;99.90;;;;;;4965344;28;20062;-69
2022/05/21 05:01:05;;;;;;;22.23;11.93;;;11.90;99.90;;;;;;4972351;28;20054;-67
2022/05/21 05:03:31;;;;;;;33.92;13.40;;;12.00;99.90;;;;;;4987344;28;20041;-71
2022/05/21 05:05:56;;;;;;;27.30;12.88;;;12.00;99.90;;;;;;4987751;28;20101;-69
2022/05/21 05:08:22;;;;;;;32.25;12.75;;;12.00;99.90;;;;;;4987070;28;20031;-71
2022/05/21 05:10:50;;;;;;;25.13;14.18;;;12.00;99.90;;;;;;4969428;28;20043;-70
2022/05/21 05:13:17;;;;;;;25.80;13.32;;;12.10;99.90;;;;;;4986923;28;20030;-68
2022/05/21 05:15:47;;;;;;;22.00;11.70;;;12.10;99.90;;;;;;4986645;28;20085;-69
2022/05/21 05:18:16;;;;;;;26.58;13.18;;;12.10;99.90;;;;;;4987621;28;20035;-69
2022/05/21 05:20:42;;;;;;;21.25;12.48;;;12.20;99.90;;;;;;4987812;28;20058;-70
2022/05/21 05:23:09;;;;;;;29.08;13.68;;;12.20;99.90;;;;;;4987103;28;20039;-68
2022/05/21 05:25:35;;;;;;;26.35;13.73;;;12.20;99.90;;;;;;4987402;28;20041;-69
2022/05/21 05:28:02;;;;;;;27.02;13.18;;;12.20;99.90;;;;;;4987208;28;20034;-70
2022/05/21 05:30:28;;;;;;;25.10;13.45;;;12.20;99.90;;;;;;4967842;28;20448;-68
2022/05/21 05:32:54;;;;;;;32.03;14.07;;;12.20;99.90;;;;;;4960194;28;20062;-69
2022/05/21 05:35:21;;;;;;;29.08;13.70;;;12.30;99.90;;;;;;4955370;28;20032;-70
2022/05/21 05:37:47;;;;;;;24.23;12.73;;;12.20;99.90;;;;;;4955420;28;20023;-71
2022/05/21 05:40:17;;;;;;;18.98;11.32;;;12.30;99.90;;;;;;4967125;28;20032;-70
2022/05/21 05:42:43;;;;;;;23.92;12.32;;;12.40;99.90;;;;;;4966275;28;20041;-70
2022/05/21 05:45:11;;;;;;;29.80;12.25;;;12.40;99.90;;;;;;4967216;28;20055;-70
2022/05/21 05:47:37;;;;;;;26.65;12.02;;;12.40;99.90;;;;;;4967192;28;20027;-69
2022/05/21 05:50:03;;;;;;;28.73;12.93;;;12.50;99.90;;;;;;4967664;28;20094;-69
2022/05/21 05:52:30;;;;;;;21.70;11.48;;;12.50;99.90;;;;;;4966409;28;20042;-70
2022/05/21 05:54:55;;;;;;;22.10;11.82;;;12.50;99.90;;;;;;4960994;29;20031;-70
2022/05/21 05:57:23;;;;;;;37.20;12.07;;;12.60;99.90;;;;;;4966590;28;20502;-70
2022/05/21 05:59:53;;;;;;;22.55;11.63;;;12.60;99.90;;;;;;4972354;28;20062;-70
2022/05/21 06:05:19;;;;;;;20.95;11.10;;;12.70;99.90;;;;;;4985661;28;20058;-71
2022/05/21 06:07:53;;;;;;;21.23;9.88;;;12.70;99.90;;;;;;4980784;28;20031;-67
2022/05/21 06:10:37;;;;;;;27.90;11.15;;;12.80;99.90;;;;;;4958899;29;20050;-71
2022/05/21 06:13:04;;;;;;;21.02;9.70;;;12.80;99.90;;;;;;4966675;28;20550;-69
2022/05/21 06:15:30;;;;;;;19.88;9.13;;;12.90;99.90;;;;;;4966917;28;20031;-70
2022/05/21 06:17:55;;;;;;;15.57;9.95;;;12.90;99.90;;;;;;4945093;28;20027;-71
2022/05/21 06:20:24;;;;;;;19.63;9.77;;;12.90;99.90;;;;;;4950538;29;20520;-70
2022/05/21 06:22:51;;;;;;;16.50;9.10;;;12.90;99.90;;;;;;4947996;29;20031;-70
2022/05/21 06:25:21;;;;;;;17.20;8.82;;;13.00;99.90;;;;;;4947792;29;20035;-71
2022/05/21 06:27:52;;;;;;;13.95;7.53;;;13.10;99.90;;;;;;4947852;29;20020;-71
2022/05/21 06:30:21;;;;;;;27.83;9.77;;;13.20;99.90;;;;;;4947873;29;20043;-72
2022/05/21 06:32:47;;;;;;;18.38;8.38;;;13.40;99.90;;;;;;4956779;28;20057;-70
2022/05/21 06:35:14;;;;;;;29.65;8.68;;;13.50;99.90;;;;;;4962061;28;20439;-69
2022/05/21 06:37:39;;;;;;;21.60;7.07;;;13.50;99.90;;;;;;4950481;29;20035;-72
2022/05/21 06:40:06;;;;;;;13.23;7.03;;;13.60;99.90;;;;;;4958318;28;20043;-70
2022/05/21 06:42:32;;;;;;;14.80;7.20;;;13.70;99.90;;;;;;4948339;29;20024;-71
2022/05/21 06:44:59;;;;;;;20.45;7.95;;;13.80;99.90;;;;;;4960822;28;20054;-72
2022/05/21 06:47:25;;;;;;;11.13;6.65;;;13.80;99.90;;;;;;4965968;28;20028;-68
2022/05/21 06:49:55;;;;;;;12.52;6.50;;;13.90;99.90;;;;;;4962098;28;20075;-69
2022/05/21 06:52:25;;;;;;;14.00;5.60;;;13.90;99.90;;;;;;4965790;28;20055;-70
2022/05/21 06:54:54;;;;;;;10.77;6.03;;;13.80;99.90;;;;;;4962630;28;20035;-73
2022/05/21 06:57:21;;;;;;;10.60;6.05;;;13.80;99.90;;;;;;4964597;28;20034;-70
2022/05/21 06:59:47;;;;;;;14.57;4.95;;;13.90;99.90;;;;;;4966764;28;20361;-73
2022/05/21 07:02:13;;;;;;;11.18;5.85;;;13.90;99.90;;;;;;4970007;28;20042;-69
2022/05/21 07:07:43;;;;;;;7.50;4.45;;;14.20;99.90;;;;;;4964405;28;20070;-69
2022/05/21 07:10:12;;;;;;;18.20;4.30;;;14.30;99.90;;;;;;4959685;28;20067;-70
2022/05/21 07:12:38;;;;;;;7.95;4.57;;;14.30;99.90;;;;;;4951134;29;20027;-73
2022/05/21 07:15:05;;;;;;;9.65;3.67;;;14.20;99.90;;;;;;4949741;29;20032;-69
2022/05/21 07:17:32;;;;;;;5.50;3.20;;;14.20;99.90;;;;;;4950726;29;20028;-68
2022/05/21 07:19:57;;;;;;;6.90;3.67;;;14.20;99.90;;;;;;4954985;28;20063;-72
2022/05/21 07:22:23;;;;;;;8.38;3.40;;;14.30;99.90;;;;;;4966510;28;20027;-69
2022/05/21 07:24:49;;;;;;;8.85;3.47;;;14.40;99.90;;;;;;4966754;28;20118;-74
2022/05/21 07:27:16;;;;;;;16.23;3.47;;;14.30;99.90;;;;;;4968312;28;20035;-71
2022/05/21 07:29:42;;;;;;;4.38;3.05;;;14.40;99.90;;;;;;4968898;28;20032;-76
2022/05/21 07:32:22;;;;;;;9.15;3.22;;;14.40;99.90;;;;;;4958248;28;20100;-69
2022/05/21 07:34:55;;;;;;;12.07;3.83;;;14.40;99.90;;;;;;4961140;28;20034;-70
2022/05/21 07:37:20;;;;;;;4.03;2.05;;;14.40;99.90;;;;;;4969203;28;20055;-69
2022/05/21 07:39:47;;;;;;;3.67;2.40;;;14.50;99.90;;;;;;4962083;28;20077;-73
2022/05/21 07:42:12;;;;;;;8.27;2.60;;;14.60;99.90;;;;;;4953864;28;20039;-73
2022/05/21 07:44:38;;;;;;;3.05;1.70;;;14.70;99.90;;;;;;4955310;28;20131;-71
2022/05/21 07:47:03;;;;;;;11.93;2.65;;;14.70;99.90;;;;;;4967821;28;20059;-69
2022/05/21 07:49:29;;;;;;;8.07;2.88;;;14.60;99.90;;;;;;4951577;28;20031;-72
2022/05/21 07:51:56;;;;;;;4.25;2.13;;;14.70;99.90;;;;;;4968922;28;20555;-74
2022/05/21 07:54:23;;;;;;;4.32;2.15;;;14.80;99.90;;;;;;4969771;28;20024;-72
2022/05/21 07:56:50;;;;;;;13.05;3.05;;;14.90;99.90;;;;;;4969036;28;20024;-71
2022/05/21 07:59:17;;;;;;;7.47;2.08;;;15.20;99.90;;;;;;4968702;28;20062;-72
2022/05/21 08:01:43;;;;;;;5.10;2.22;;;15.20;99.90;;;;;;4963920;28;20162;-69
2022/05/21 08:04:09;;;;;;;10.10;2.63;;;15.20;99.90;;;;;;4982541;28;20598;-75
2022/05/21 08:06:34;;;;;;;3.20;1.90;;;15.30;99.90;;;;;;4975911;28;20036;-72
2022/05/21 08:09:01;;;;;;;6.47;2.13;;;15.30;99.90;;;;;;4957096;28;20468;-73
2022/05/21 08:11:28;;;;;;;16.95;2.08;;;15.30;99.90;;;;;;4949690;29;20055;-72
2022/05/21 08:13:53;;;;;;;7.80;1.77;;;15.40;99.90;;;;;;4959471;28;20371;-75
2022/05/21 08:16:21;;;;;;;2.45;1.30;;;15.30;99.90;;;;;;4951962;28;20059;-69
2022/05/21 08:18:47;;;;;;;12.27;1.95;;;15.30;99.90;;;;;;4968223;28;20026;-71
2022/05/21 08:21:13;;;;;;;7.18;1.80;;;15.30;99.90;;;;;;4953921;29;20027;-71
2022/05/21 08:29:07;;;;;;;6.50;2.20;;;15.40;99.90;;;;;;4966965;28;20050;-72
2022/05/21 08:31:33;;;;;;;11.35;2.25;;;15.30;99.90;;;;;;4950835;29;20039;-70
2022/05/21 08:34:00;;;;;;;6.18;1.77;;;15.20;99.90;;;;;;4961702;28;20072;-72
2022/05/21 08:36:26;;;;;;;4.65;1.88;;;15.10;99.90;;;;;;4949684;29;20032;-72
2022/05/21 08:38:52;;;;;;;7.03;2.28;;;15.10;99.90;;;;;;4956393;29;20079;-72
2022/05/21 08:41:32;;;;;;;3.03;1.63;;;15.20;99.90;;;;;;4956527;28;20027;-71
2022/05/21 08:44:08;;;;;;;9.23;2.20;;;15.40;99.90;;;;;;4962598;28;20122;-71
2022/05/21 08:46:53;;;;;;;6.63;2.28;;;15.50;99.90;;;;;;4962850;28;20027;-71
2022/05/21 08:49:33;;;;;;;5.32;2.20;;;15.50;99.90;;;;;;4964485;28;20118;-74
2022/05/21 08:52:18;;;;;;;8.30;1.63;;;15.40;99.90;;;;;;4966955;28;20095;-69
2022/05/21 08:54:46;;;;;;;4.03;2.08;;;15.20;99.90;;;;;;4968774;28;20035;-72
2022/05/21 08:57:27;;;;;;;6.25;2.05;;;15.10;99.90;;;;;;4968663;28;20149;-68
2022/05/21 09:00:01;;;;;;;4.50;2.03;;;15.00;99.90;;;;;;4967149;28;20023;-73
2022/05/21 09:02:31;;;;;;;5.57;2.07;;;15.00;99.90;;;;;;4967699;28;20031;-71
2022/05/21 09:04:57;;;;;;;3.13;1.85;;;15.00;99.90;;;;;;4955208;28;20096;-70
2022/05/21 09:07:28;;;;;;;10.63;1.67;;;15.10;99.90;;;;;;4954724;29;20027;-72
2022/05/21 09:10:23;;;;;;;3.40;1.83;;;15.30;99.90;;;;;;4950190;29;20040;-71
2022/05/21 09:13:03;;;;;;;;;;;15.60;99.90;;;;;;4959502;28;20027;-70
2022/05/21 09:18:16;;;;;;;9.55;2.20;;;16.10;99.90;;;;;;4962006;28;20662;-71
2022/05/21 09:20:59;;;;;;;4.32;1.92;;;16.30;99.90;;;;;;4957752;28;20119;-70
2022/05/21 09:23:44;;;;;;;5.63;1.50;;;16.20;99.90;;;;;;4964782;28;20543;-72
2022/05/21 09:26:10;;;;;;;5.20;1.70;;;16.00;99.90;;;;;;4967206;28;20118;-70
2022/05/21 09:28:38;;;;;;;3.95;1.38;;;15.80;99.90;;;;;;4966168;29;20035;-71
2022/05/21 09:31:05;;;;;;;4.18;1.50;;;15.60;99.90;;;;;;4966874;28;20046;-68
2022/05/21 09:33:43;;;;;;;9.48;2.17;;;15.50;99.90;;;;;;4962866;28;20051;-70
2022/05/21 09:36:15;;;;;;;5.10;1.45;;;15.30;99.90;;;;;;4967110;28;20527;-69
2022/05/21 09:38:55;;;;;;;3.70;1.48;;;15.40;99.90;;;;;;4952188;28;20083;-70
2022/05/21 09:41:32;;;;;;;7.80;1.52;;;15.50;99.90;;;;;;4947804;29;20023;-70
2022/05/21 09:46:46;;;;;;;2.58;1.45;;;15.70;99.90;;;;;;4948494;29;20094;-70
2022/05/21 09:49:28;;;;;;;4.95;1.63;;;16.00;99.90;;;;;;4960823;28;20118;-68
2022/05/21 09:52:04;;;;;;;4.85;1.77;;;16.00;99.90;;;;;;4957458;28;20062;-70
2022/05/21 09:54:43;;;;;;;2.08;1.02;;;16.20;99.90;;;;;;4966382;28;20028;-70
2022/05/21 09:57:27;;;;;;;2.35;1.27;;;16.30;99.90;;;;;;4966808;28;20118;-70
2022/05/21 10:00:28;;;;;;;5.70;1.13;;;16.20;99.90;;;;;;4962597;28;20063;-71
2022/05/21 10:03:08;;;;;;;1.80;1.02;;;16.20;99.90;;;;;;4953237;29;20036;-70
2022/05/21 10:05:44;;;;;;;1.52;0.80;;;16.30;99.90;;;;;;4967381;28;20028;-70
2022/05/21 10:11:18;;;;;;;9.93;1.63;;;17.00;99.90;;;;;;4957111;28;20455;-68
2022/05/21 10:13:48;;;;;;;2.22;0.98;;;17.00;99.90;;;;;;4953353;28;20035;-69
2022/05/21 10:16:29;;;;;;;5.53;1.08;;;17.00;99.90;;;;;;4952365;29;20023;-69
2022/05/21 10:18:59;;;;;;;9.80;1.92;;;16.90;99.90;;;;;;4948993;29;20058;-70
2022/05/21 10:21:35;;;;;;;9.73;1.20;;;16.60;99.90;;;;;;4965387;28;20039;-71
2022/05/21 10:24:13;;;;;;;2.63;1.33;;;16.50;99.90;;;;;;4966057;28;20035;-74
2022/05/21 10:26:57;;;;;;;7.55;1.73;;;16.40;99.90;;;;;;4948897;28;20027;-69
2022/05/21 10:29:44;;;;;;;5.10;1.33;;;16.30;99.90;;;;;;4955785;28;20088;-70
2022/05/21 10:32:11;;;;;;;2.63;0.90;;;16.40;99.90;;;;;;4947261;29;20028;-70
2022/05/21 10:34:44;;;;;;;9.73;1.38;;;16.40;99.90;;;;;;4946846;29;20032;-74
2022/05/21 10:37:21;;;;;;;1.50;1.13;;;16.60;99.90;;;;;;4946983;29;20020;-72
2022/05/21 10:39:51;;;;;;;4.18;1.25;;;16.80;99.90;;;;;;4946954;29;20039;-74
2022/05/21 10:42:53;;;;;;;2.50;1.02;;;16.80;99.90;;;;;;4947079;29;20119;-74
2022/05/21 10:45:32;;;;;;;2.97;1.25;;;16.90;99.90;;;;;;4913584;29;21054;-74
2022/05/21 10:48:39;;;;;;;3.88;1.55;;;17.00;99.90;;;;;;4965713;28;20030;-71
2022/05/21 10:51:25;;;;;;;1.70;0.98;;;17.30;99.90;;;;;;4933790;29;20051;-70
2022/05/21 10:54:13;;;;;;;1.23;0.60;;;17.50;99.90;;;;;;4962968;28;20027;-71
2022/05/21 10:56:39;;;;;;;2.17;1.00;;;17.50;99.90;;;;;;4966603;28;20050;-74
2022/05/21 10:59:42;;;;;;;4.13;0.88;;;17.60;99.90;;;;;;4965123;28;20038;-73
2022/05/21 11:02:22;;;;;;;4.55;0.80;;;17.40;99.90;;;;;;4966056;28;20031;-72
2022/05/21 11:04:47;;;;;;;1.55;0.80;;;17.30;99.90;;;;;;4966322;28;20365;-74
2022/05/21 11:07:51;;;;;;;1.48;0.85;;;17.10;99.90;;;;;;4966182;28;20055;-74
2022/05/21 11:10:19;;;;;;;4.07;0.98;;;17.00;99.90;;;;;;4950964;28;20389;-69
2022/05/21 11:13:07;;;;;;;8.43;1.23;;;16.90;99.90;;;;;;4966514;28;20032;-73
2022/05/21 11:15:42;;;;;;;8.70;0.98;;;17.20;99.90;;;;;;4966496;28;20027;-75
2022/05/21 11:18:26;;;;;;;5.40;1.17;;;17.60;99.90;;;;;;4966453;28;20087;-74
2022/05/21 11:20:54;;;;;;;1.70;0.80;;;18.00;99.90;;;;;;4965348;28;20080;-73
2022/05/21 11:23:48;;;;;;;10.00;1.60;;;18.40;99.90;;;;;;4966495;28;20031;-73
2022/05/21 11:26:49;;;;;;;6.20;0.95;;;18.70;99.90;;;;;;4970092;28;20034;-71
2022/05/21 11:29:46;;;;;;;5.03;0.95;;;18.90;99.90;;;;;;4968798;28;20130;-72
2022/05/21 11:38:03;;;;;;;1.05;0.68;;;18.80;99.90;;;;;;4965456;28;20042;-70
2022/05/21 11:47:08;;;;;;;6.03;1.10;;;18.60;99.90;;;;;;4969238;28;20059;-73
2022/05/21 11:49:53;;;;;;;1.55;0.60;;;19.00;99.90;;;;;;4966576;28;20066;-71
2022/05/21 11:52:31;;;;;;;2.67;0.80;;;19.20;99.90;;;;;;4969409;28;20036;-72
2022/05/21 11:54:57;;;;;;;5.13;1.10;;;19.00;99.90;;;;;;4967653;28;20043;-68
2022/05/21 11:57:35;;;;;;;5.55;1.20;;;18.70;99.90;;;;;;4968226;28;20038;-69
2022/05/21 12:00:05;;;;;;;0.70;0.35;;;18.80;99.90;;;;;;4962474;28;20102;-70
2022/05/21 12:02:34;;;;;;;2.58;0.90;;;19.20;99.90;;;;;;4949141;29;20059;-76
2022/05/21 12:05:09;;;;;;;1.30;0.57;;;19.30;99.90;;;;;;4962415;28;20090;-71
2022/05/21 12:07:41;;;;;;;1.00;0.57;;;19.20;99.90;;;;;;4967946;28;20027;-73
2022/05/21 12:10:24;;;;;;;2.17;0.73;;;19.10;99.90;;;;;;4967798;28;20130;-70
2022/05/21 12:13:13;;;;;;;2.63;0.50;;;19.20;99.90;;;;;;4968913;28;20024;-73
2022/05/21 12:15:47;;;;;;;2.28;0.60;;;19.40;99.90;;;;;;4968499;28;20027;-71
2022/05/21 12:18:40;;;;;;;4.85;1.50;;;19.70;99.90;;;;;;4968604;28;20391;-70
2022/05/21 12:21:13;;;;;;;1.85;0.88;;;19.90;99.90;;;;;;4963572;28;20123;-71
2022/05/21 12:23:42;;;;;;;3.15;0.98;;;20.10;99.90;;;;;;4967388;28;20030;-70
2022/05/21 12:26:19;;;;;;;4.93;0.80;;;19.90;99.90;;;;;;4964744;28;20051;-70
2022/05/21 12:29:22;;;;;;;5.70;1.10;;;19.50;99.90;;;;;;4968270;28;20116;-72
2022/05/21 12:31:47;;;;;;;2.78;0.80;;;18.90;99.90;;;;;;4949817;29;20043;-75
2022/05/21 12:34:21;;;;;;;3.25;1.00;;;18.50;99.90;;;;;;4967625;28;20643;-72
2022/05/21 12:37:30;;;;;;;2.13;0.90;;;18.50;99.90;;;;;;4950824;29;20016;-71
2022/05/21 12:40:05;;;;;;;3.58;0.85;;;18.60;99.90;;;;;;4943202;29;20044;-75
2022/05/21 12:42:59;;;;;;;1.30;0.65;;;18.40;99.90;;;;;;4950616;29;20492;-70
2022/05/21 12:45:51;;;;;;;1.80;0.57;;;18.30;99.90;;;;;;4959433;28;20031;-74
2022/05/21 12:48:22;;;;;;;3.00;0.70;;;19.00;99.90;;;;;;4968222;28;20035;-71
2022/05/21 12:50:54;;;;;;;1.08;0.57;;;19.30;99.90;;;;;;4949971;29;20039;-72
2022/05/21 12:53:26;;;;;;;1.45;0.50;;;19.20;99.90;;;;;;4963877;28;20039;-72
2022/05/21 12:56:29;;;;;;;2.00;0.77;;;18.90;99.90;;;;;;4967397;28;20114;-72
2022/05/21 12:59:21;;;;;;;0.93;0.52;;;18.60;99.90;;;;;;4967403;28;20035;-73
2022/05/21 13:01:55;;;;;;;0.93;0.40;;;18.40;99.90;;;;;;4968173;28;20086;-72
2022/05/21 13:04:25;;;;;;;3.40;0.50;;;18.20;99.90;;;;;;4967602;28;20106;-74
2022/05/21 13:06:59;;;;;;;2.47;0.50;;;18.10;99.90;;;;;;4967815;28;20035;-74
2022/05/21 13:09:25;;;;;;;9.13;1.10;;;18.30;99.90;;;;;;4967886;28;20039;-73
2022/05/21 13:11:52;;;;;;;6.40;0.75;;;18.30;99.90;;;;;;4954050;29;20066;-77
2022/05/21 13:14:48;;;;;;;2.63;0.90;;;18.30;99.90;;;;;;4948520;29;20111;-74
2022/05/21 13:17:43;;;;;;;1.75;0.75;;;18.20;99.90;;;;;;4944080;29;20044;-70
2022/05/21 13:20:32;;;;;;;3.70;0.80;;;18.10;99.90;;;;;;4954227;28;20027;-72
2022/05/21 13:23:08;;;;;;;3.25;1.10;;;18.10;99.90;;;;;;4944649;28;20032;-73
2022/05/21 13:25:33;;;;;;;3.08;0.70;;;18.20;99.90;;;;;;4964736;28;20051;-73
2022/05/21 13:27:59;;;;;;;4.95;0.85;;;18.10;99.90;;;;;;4965846;28;20042;-74
2022/05/21 13:30:32;;;;;;;2.80;1.02;;;17.90;99.90;;;;;;4966509;29;20074;-71
2022/05/21 13:33:15;;;;;;;1.27;0.65;;;17.70;99.90;;;;;;4962493;28;20101;-73
2022/05/21 13:35:42;;;;;;;3.58;0.70;;;17.60;99.90;;;;;;4961132;28;20174;-73
2022/05/21 13:38:13;;;;;;;5.28;0.82;;;17.50;99.90;;;;;;4962736;28;20140;-75
2022/05/21 13:40:53;;;;;;;3.60;0.77;;;17.70;99.90;;;;;;4956872;28;20031;-71